createdAt,value
2023-02-03T00:01:29.820Z,10.88
2023-02-03T00:03:56.163Z,8.07
2023-02-03T00:06:22.564Z,12.55
2023-02-03T00:08:49.321Z,8.98
2023-02-03T00:11:15.715Z,8.60
2023-02-03T00:13:42.121Z,11.20
2023-02-03T00:16:08.476Z,11.07
2023-02-03T00:18:34.965Z,9.50
2023-02-03T00:21:01.283Z,10.32
2023-02-03T00:23:31.906Z,6.90
2023-02-03T00:25:58.945Z,9.95
2023-02-03T00:28:28.218Z,11.35
2023-02-03T00:30:54.517Z,8.02
2023-02-03T00:33:21.015Z,13.35
2023-02-03T00:35:47.444Z,7.85
2023-02-03T00:38:13.835Z,17.73
2023-02-03T00:40:40.173Z,7.40
2023-02-03T00:43:06.542Z,9.90
2023-02-03T00:45:33.023Z,15.10
2023-02-03T00:47:59.396Z,9.15
2023-02-03T00:50:25.932Z,9.07
2023-02-03T00:52:52.500Z,11.65
2023-02-03T00:55:18.845Z,11.75
2023-02-03T00:57:45.312Z,10.75
2023-02-03T01:00:12.003Z,7.35
2023-02-03T01:02:38.369Z,10.65
2023-02-03T01:05:04.858Z,9.13
2023-02-03T01:07:32.202Z,9.07
2023-02-03T01:09:58.570Z,8.27
2023-02-03T01:12:24.917Z,8.77
2023-02-03T01:14:51.247Z,7.63
2023-02-03T01:17:17.579Z,6.32
2023-02-03T01:19:44.059Z,7.88
2023-02-03T01:22:10.401Z,8.85
2023-02-03T01:24:36.773Z,11.25
2023-02-03T01:27:03.198Z,11.05
2023-02-03T01:29:29.610Z,7.78
2023-02-03T01:31:56.149Z,8.02
2023-02-03T01:34:22.668Z,8.95
2023-02-03T01:36:49.186Z,5.25
2023-02-03T01:39:15.581Z,8.05
2023-02-03T01:41:41.986Z,7.13
2023-02-03T01:44:26.727Z,9.45
2023-02-03T01:46:53.502Z,8.43
2023-02-03T01:49:22.789Z,9.48
2023-02-03T01:51:49.316Z,7.78
2023-02-03T01:54:17.606Z,6.85
2023-02-03T01:56:46.080Z,6.93
2023-02-03T01:59:14.402Z,7.68
2023-02-03T02:01:40.777Z,11.50
2023-02-03T02:04:08.086Z,8.98
2023-02-03T02:06:34.441Z,9.40
2023-02-03T02:09:01.083Z,5.78
2023-02-03T02:11:28.058Z,9.43
2023-02-03T02:13:55.677Z,6.18
2023-02-03T02:16:22.015Z,6.50
2023-02-03T02:19:03.716Z,6.03
2023-02-03T02:21:36.086Z,4.85
2023-02-03T02:24:08.326Z,5.57
2023-02-03T02:27:04.172Z,9.60
2023-02-03T02:29:49.237Z,7.27
2023-02-03T02:32:41.984Z,7.40
2023-02-03T02:35:15.664Z,8.80
2023-02-03T02:37:48.250Z,5.28
2023-02-03T02:40:35.553Z,8.60
2023-02-03T02:43:12.684Z,2.13
2023-02-03T02:45:45.259Z,6.40
2023-02-03T02:48:31.851Z,7.70
2023-02-03T02:50:59.091Z,7.03
2023-02-03T02:53:27.037Z,7.05
2023-02-03T02:55:53.679Z,13.93
2023-02-03T02:58:20.837Z,11.15
2023-02-03T03:00:48.333Z,7.32
2023-02-03T03:03:15.975Z,11.00
2023-02-03T03:05:43.840Z,10.82
2023-02-03T03:08:12.264Z,8.38
2023-02-03T03:10:40.118Z,5.13
2023-02-03T03:13:08.414Z,14.77
2023-02-03T03:15:35.875Z,7.13
2023-02-03T03:18:07.968Z,6.50
2023-02-03T03:20:34.934Z,7.25
2023-02-03T03:23:04.066Z,8.93
2023-02-03T03:25:34.764Z,7.22
2023-02-03T03:28:02.993Z,14.75
2023-02-03T03:30:32.748Z,7.35
2023-02-03T03:32:59.159Z,10.52
2023-02-03T03:35:28.465Z,13.05
2023-02-03T03:38:06.108Z,11.63
2023-02-03T03:40:34.863Z,7.97
2023-02-03T03:43:03.520Z,5.30
2023-02-03T03:45:56.055Z,6.53
2023-02-03T03:48:27.598Z,8.77
2023-02-03T03:50:58.132Z,5.72
2023-02-03T03:53:26.000Z,6.07
2023-02-03T03:55:53.518Z,8.93
2023-02-03T03:58:24.676Z,14.23
2023-02-03T04:00:52.943Z,14.25
2023-02-03T04:03:22.094Z,6.82
2023-02-03T04:05:48.472Z,6.60
2023-02-03T04:08:14.817Z,7.82
2023-02-03T04:10:42.087Z,8.25
2023-02-03T04:13:09.385Z,7.65
2023-02-03T04:15:36.002Z,13.32
2023-02-03T04:18:02.632Z,9.85
2023-02-03T04:20:29.748Z,7.40
2023-02-03T04:22:56.328Z,8.60
2023-02-03T04:25:23.164Z,7.50
2023-02-03T04:27:49.490Z,10.80
2023-02-03T04:30:18.277Z,13.68
2023-02-03T04:32:47.851Z,11.60
2023-02-03T04:35:14.225Z,7.97
2023-02-03T04:37:40.607Z,12.23
2023-02-03T04:40:07.487Z,5.40
2023-02-03T04:42:33.944Z,12.82
2023-02-03T04:45:00.260Z,8.52
2023-02-03T04:47:26.563Z,10.60
2023-02-03T04:49:52.949Z,8.95
2023-02-03T04:52:19.306Z,10.13
2023-02-03T04:54:45.648Z,13.93
2023-02-03T04:57:12.059Z,6.88
2023-02-03T04:59:38.370Z,9.85
2023-02-03T05:02:04.951Z,13.40
2023-02-03T05:04:31.911Z,8.20
2023-02-03T05:06:58.315Z,9.85
2023-02-03T05:09:24.923Z,13.60
2023-02-03T05:11:51.342Z,8.75
2023-02-03T05:14:17.649Z,10.13
2023-02-03T05:16:44.412Z,7.95
2023-02-03T05:19:10.845Z,14.23
2023-02-03T05:21:37.448Z,9.10
2023-02-03T05:24:06.857Z,8.45
2023-02-03T05:26:34.435Z,8.07
2023-02-03T05:29:01.120Z,11.05
2023-02-03T05:31:27.534Z,8.25
2023-02-03T05:33:53.895Z,13.45
2023-02-03T05:36:20.222Z,10.25
2023-02-03T05:38:46.542Z,10.40
2023-02-03T05:41:31.699Z,7.13
2023-02-03T05:43:58.061Z,10.25
2023-02-03T05:46:24.503Z,16.13
2023-02-03T05:48:50.826Z,15.80
2023-02-03T05:51:17.391Z,10.02
2023-02-03T05:53:43.919Z,13.75
2023-02-03T05:56:10.243Z,8.70
2023-02-03T05:58:36.700Z,7.07
2023-02-03T06:01:03.054Z,12.30
2023-02-03T06:03:29.364Z,11.88
2023-02-03T06:05:55.724Z,11.10
2023-02-03T06:08:22.079Z,7.15
2023-02-03T06:10:48.449Z,13.63
2023-02-03T06:13:15.838Z,10.88
2023-02-03T06:15:42.608Z,12.57
2023-02-03T06:18:08.941Z,11.05
2023-02-03T06:20:35.337Z,10.27
2023-02-03T06:23:01.728Z,10.32
2023-02-03T06:25:28.054Z,8.30
2023-02-03T06:27:54.474Z,6.53
2023-02-03T06:30:23.741Z,8.32
2023-02-03T06:32:50.739Z,9.75
2023-02-03T06:35:17.478Z,10.90
2023-02-03T06:37:44.025Z,10.60
2023-02-03T06:40:10.886Z,9.05
2023-02-03T06:42:37.201Z,10.68
2023-02-03T06:45:03.873Z,15.38
2023-02-03T06:47:30.209Z,9.55
2023-02-03T06:49:56.599Z,9.43
2023-02-03T06:52:22.909Z,9.18
2023-02-03T06:54:49.221Z,11.13
2023-02-03T06:57:15.652Z,12.23
2023-02-03T06:59:41.992Z,10.43
2023-02-03T07:02:09.800Z,18.85
2023-02-03T07:04:37.056Z,10.32
2023-02-03T07:07:03.343Z,8.30
2023-02-03T07:09:29.645Z,10.25
2023-02-03T07:11:56.025Z,8.82
2023-02-03T07:14:22.320Z,8.60
2023-02-03T07:16:48.621Z,5.55
2023-02-03T07:19:14.957Z,11.77
2023-02-03T07:21:41.334Z,11.15
2023-02-03T07:24:07.734Z,11.05
2023-02-03T07:26:34.176Z,14.32
2023-02-03T07:29:00.857Z,10.45
2023-02-03T07:31:27.721Z,7.53
2023-02-03T07:33:54.104Z,9.43
2023-02-03T07:36:20.468Z,13.93
2023-02-03T07:38:46.755Z,12.30
2023-02-03T07:41:13.058Z,9.75
2023-02-03T07:43:39.390Z,9.52
2023-02-03T07:46:05.838Z,11.50
2023-02-03T07:48:32.384Z,11.70
2023-02-03T07:50:58.742Z,10.07
2023-02-03T07:53:25.064Z,10.55
2023-02-03T07:55:51.413Z,9.75
2023-02-03T07:58:17.795Z,11.13
2023-02-03T08:00:44.166Z,8.18
2023-02-03T08:03:10.542Z,7.28
2023-02-03T08:05:36.836Z,11.13
2023-02-03T08:08:03.207Z,15.30
2023-02-03T08:10:29.935Z,11.55
2023-02-03T08:12:56.604Z,11.45
2023-02-03T08:15:23.112Z,8.38
2023-02-03T08:17:49.495Z,13.38
2023-02-03T08:20:16.535Z,9.38
2023-02-03T08:22:42.994Z,11.25
2023-02-03T08:25:10.083Z,13.88
2023-02-03T08:27:36.485Z,10.05
2023-02-03T08:30:03.007Z,15.55
2023-02-03T08:32:29.397Z,10.38
2023-02-03T08:34:56.088Z,11.70
2023-02-03T08:37:24.373Z,14.13
2023-02-03T08:39:51.113Z,8.70
2023-02-03T08:42:17.551Z,11.02
2023-02-03T08:44:44.242Z,12.00
2023-02-03T08:47:11.189Z,13.43
2023-02-03T08:49:39.577Z,13.55
2023-02-03T08:52:08.911Z,9.35
2023-02-03T08:54:35.292Z,15.07
2023-02-03T08:57:01.669Z,9.88
2023-02-03T08:59:29.220Z,11.60
2023-02-03T09:01:55.641Z,11.27
2023-02-03T09:04:24.812Z,18.70
2023-02-03T09:06:52.101Z,8.63
2023-02-03T09:09:18.397Z,8.48
2023-02-03T09:11:44.698Z,12.10
2023-02-03T09:14:11.221Z,11.25
2023-02-03T09:16:37.657Z,11.93
2023-02-03T09:19:04.032Z,8.90
2023-02-03T09:21:36.298Z,12.13
2023-02-03T09:24:07.627Z,9.02
2023-02-03T09:26:34.001Z,11.45
2023-02-03T09:29:00.432Z,7.60
2023-02-03T09:31:26.795Z,9.18
2023-02-03T09:33:53.259Z,10.05
2023-02-03T09:36:19.659Z,14.35
2023-02-03T09:38:46.012Z,9.07
2023-02-03T09:41:12.382Z,13.60
2023-02-03T09:43:43.239Z,11.07
2023-02-03T09:46:12.367Z,13.43
2023-02-03T09:48:42.201Z,9.85
2023-02-03T09:51:16.553Z,9.07
2023-02-03T09:53:45.676Z,14.13
2023-02-03T09:56:22.106Z,6.47
2023-02-03T09:58:48.450Z,11.40
2023-02-03T10:01:17.314Z,10.00
2023-02-03T10:03:51.794Z,9.70
2023-02-03T10:06:33.092Z,6.57
2023-02-03T10:08:59.508Z,7.95
2023-02-03T10:11:28.578Z,11.85
2023-02-03T10:14:00.993Z,12.27
2023-02-03T10:16:39.809Z,5.68
2023-02-03T10:19:09.660Z,13.13
2023-02-03T10:21:37.272Z,7.38
2023-02-03T10:24:09.789Z,7.10
2023-02-03T10:26:38.363Z,12.23
2023-02-03T10:29:21.397Z,7.35
2023-02-03T10:31:48.381Z,3.97
2023-02-03T10:34:16.161Z,16.42
2023-02-03T10:36:45.516Z,8.63
2023-02-03T10:39:17.723Z,8.25
2023-02-03T10:41:44.102Z,9.75
2023-02-03T10:44:12.932Z,5.50
2023-02-03T10:46:40.360Z,9.77
2023-02-03T10:49:06.882Z,8.45
2023-02-03T10:51:38.628Z,13.27
2023-02-03T10:54:05.176Z,6.25
2023-02-03T10:56:35.190Z,10.27
2023-02-03T10:59:01.634Z,7.88
2023-02-03T11:01:38.506Z,8.30
2023-02-03T11:04:05.588Z,5.28
2023-02-03T11:06:33.205Z,12.93
2023-02-03T11:09:00.016Z,8.98
2023-02-03T11:11:26.428Z,11.50
2023-02-03T11:14:13.349Z,7.95
2023-02-03T11:16:41.145Z,10.23
2023-02-03T11:19:11.383Z,14.35
2023-02-03T11:21:37.705Z,7.07
2023-02-03T11:24:15.995Z,6.68
2023-02-03T11:27:04.700Z,9.90
2023-02-03T11:29:32.046Z,13.00
2023-02-03T11:32:01.662Z,10.00
2023-02-03T11:34:32.216Z,8.02
2023-02-03T11:37:10.105Z,5.38
2023-02-03T11:39:36.583Z,12.75
2023-02-03T11:42:03.527Z,9.98
2023-02-03T11:44:31.403Z,9.25
2023-02-03T11:47:03.886Z,6.82
2023-02-03T11:49:36.144Z,12.80
2023-02-03T11:52:17.640Z,10.18
2023-02-03T11:54:55.973Z,11.63
2023-02-03T11:57:22.372Z,8.55
2023-02-03T11:59:56.307Z,6.55
2023-02-03T12:02:41.525Z,6.55
2023-02-03T12:05:26.430Z,6.35
2023-02-03T12:08:07.608Z,10.63
2023-02-03T12:10:40.151Z,5.65
2023-02-03T12:13:06.492Z,9.18
2023-02-03T12:15:50.152Z,7.57
2023-02-03T12:18:28.668Z,6.47
2023-02-03T12:20:56.120Z,7.20
2023-02-03T12:23:23.705Z,8.90
2023-02-03T12:25:56.460Z,5.78
2023-02-03T12:28:33.298Z,10.32
2023-02-03T12:31:04.435Z,12.45
2023-02-03T12:33:34.044Z,6.38
2023-02-03T12:36:18.470Z,6.03
2023-02-03T12:38:54.729Z,7.13
2023-02-03T12:41:24.497Z,7.82
2023-02-03T12:43:53.209Z,9.80
2023-02-03T12:46:22.582Z,8.40
2023-02-03T12:49:05.897Z,6.97
2023-02-03T12:51:32.267Z,8.20
2023-02-03T12:54:02.686Z,9.05
2023-02-03T12:56:39.893Z,5.93
2023-02-03T12:59:09.319Z,2.88
2023-02-03T13:01:41.993Z,8.63
2023-02-03T13:04:11.540Z,7.15
2023-02-03T13:06:57.334Z,5.65
2023-02-03T13:09:41.406Z,5.75
2023-02-03T13:12:11.075Z,7.25
2023-02-03T13:14:49.340Z,8.68
2023-02-03T13:17:18.496Z,4.93
2023-02-03T13:19:52.970Z,5.00
2023-02-03T13:22:23.907Z,8.93
2023-02-03T13:25:09.118Z,5.15
2023-02-03T13:27:54.288Z,8.05
2023-02-03T13:30:40.966Z,7.20
2023-02-03T13:33:26.046Z,8.75
2023-02-03T13:36:11.002Z,7.07
2023-02-03T13:38:43.348Z,6.82
2023-02-03T13:41:29.906Z,8.70
2023-02-03T13:43:57.771Z,6.15
2023-02-03T13:46:35.708Z,7.18
2023-02-03T13:49:04.738Z,11.93
2023-02-03T13:51:34.759Z,10.98
2023-02-03T13:54:03.946Z,7.65
2023-02-03T13:56:31.059Z,14.68
2023-02-03T13:59:00.136Z,8.27
2023-02-03T14:01:33.972Z,12.98
2023-02-03T14:04:00.938Z,11.95
2023-02-03T14:06:39.492Z,10.68
2023-02-03T14:09:28.649Z,7.72
2023-02-03T14:12:13.303Z,8.20
2023-02-03T14:14:39.619Z,10.65
2023-02-03T14:17:08.739Z,11.63
2023-02-03T14:19:35.070Z,21.70
2023-02-03T14:22:09.162Z,9.10
2023-02-03T14:24:38.170Z,9.48
2023-02-03T14:27:06.332Z,9.65
2023-02-03T14:29:35.060Z,9.88
2023-02-03T14:32:05.568Z,11.07
2023-02-03T14:34:34.228Z,10.70
2023-02-03T14:37:18.746Z,10.93
2023-02-03T14:39:55.371Z,5.88
2023-02-03T14:42:21.789Z,11.63
2023-02-03T14:45:05.841Z,6.38
2023-02-03T14:47:47.511Z,7.32
2023-02-03T14:50:21.835Z,10.55
2023-02-03T14:53:06.809Z,10.77
2023-02-03T14:55:44.265Z,9.88
2023-02-03T14:58:20.736Z,5.43
2023-02-03T15:00:49.174Z,15.45
2023-02-03T15:03:19.905Z,13.18
2023-02-03T15:05:47.429Z,5.97
2023-02-03T15:08:33.283Z,11.57
2023-02-03T15:11:00.411Z,12.35
2023-02-03T15:13:27.736Z,13.60
2023-02-03T15:15:56.481Z,8.90
2023-02-03T15:18:27.979Z,7.72
2023-02-03T15:20:55.048Z,12.38
2023-02-03T15:23:25.606Z,8.93
2023-02-03T15:25:55.070Z,7.30
2023-02-03T15:28:22.299Z,15.68
2023-02-03T15:31:00.673Z,9.80
2023-02-03T15:33:28.735Z,9.35
2023-02-03T15:35:57.323Z,9.43
2023-02-03T15:38:29.309Z,11.70
2023-02-03T15:40:58.663Z,7.50
2023-02-03T15:43:33.142Z,6.53
2023-02-03T15:46:08.781Z,12.25
2023-02-03T15:48:37.476Z,8.77
2023-02-03T15:51:09.491Z,13.90
2023-02-03T15:53:58.276Z,8.35
2023-02-03T15:56:40.974Z,11.45
2023-02-03T15:59:19.877Z,11.55
2023-02-03T16:01:46.363Z,8.73
2023-02-03T16:04:14.471Z,11.45
2023-02-03T16:06:44.938Z,12.88
2023-02-03T16:09:28.109Z,9.02
2023-02-03T16:12:24.372Z,15.38
2023-02-03T16:14:51.620Z,9.95
2023-02-03T16:17:31.709Z,11.20
2023-02-03T16:20:32.222Z,9.02
2023-02-03T16:23:04.053Z,15.52
2023-02-03T16:25:32.110Z,4.13
2023-02-03T16:28:21.427Z,8.07
2023-02-03T16:31:13.492Z,7.80
2023-02-03T16:33:58.311Z,11.38
2023-02-03T16:36:43.444Z,11.35
2023-02-03T16:39:30.001Z,12.27
2023-02-03T16:42:18.748Z,8.98
2023-02-03T16:45:04.361Z,9.23
2023-02-03T16:47:51.008Z,12.55
2023-02-03T16:50:40.810Z,12.48
2023-02-03T16:53:12.368Z,14.10
2023-02-03T16:55:38.741Z,11.38
2023-02-03T16:58:05.158Z,11.80
2023-02-03T17:00:31.607Z,13.02
2023-02-03T17:02:58.787Z,9.05
2023-02-03T17:05:25.245Z,8.43
2023-02-03T17:07:51.626Z,10.48
2023-02-03T17:10:18.043Z,13.10
2023-02-03T17:12:44.516Z,13.88
2023-02-03T17:15:10.940Z,10.70
2023-02-03T17:17:37.348Z,9.10
2023-02-03T17:20:03.820Z,16.58
2023-02-03T17:22:32.087Z,8.40
2023-02-03T17:24:58.444Z,11.10
2023-02-03T17:27:24.808Z,13.70
2023-02-03T17:29:51.116Z,15.35
2023-02-03T17:32:17.727Z,12.15
2023-02-03T17:34:44.560Z,15.02
2023-02-03T17:37:11.073Z,11.02
2023-02-03T17:55:48.849Z,16.55
2023-02-03T17:58:15.151Z,20.67
2023-02-03T18:00:41.592Z,15.57
2023-02-03T18:03:07.989Z,14.70
2023-02-03T18:05:36.949Z,14.23
2023-02-03T18:08:09.253Z,17.52
2023-02-03T18:10:43.327Z,12.15
2023-02-03T18:13:10.016Z,8.32
2023-02-03T18:15:38.420Z,11.10
2023-02-03T18:18:04.885Z,12.70
2023-02-03T18:20:31.409Z,10.40
2023-02-03T18:22:57.867Z,15.27
2023-02-03T18:25:24.257Z,14.07
2023-02-03T18:27:51.611Z,13.60
2023-02-03T18:30:20.108Z,11.00
2023-02-03T18:32:50.049Z,15.00
2023-02-03T18:35:17.231Z,11.30
2023-02-03T18:37:43.721Z,8.15
2023-02-03T18:40:11.148Z,11.95
2023-02-03T18:42:37.536Z,13.98
2023-02-03T18:45:06.405Z,12.32
2023-02-03T18:47:33.386Z,9.65
2023-02-03T18:49:59.726Z,10.65
2023-02-03T18:52:26.081Z,20.08
2023-02-03T18:54:52.520Z,16.67
2023-02-03T18:57:19.348Z,20.52
2023-02-03T18:59:46.630Z,12.65
2023-02-03T19:02:13.074Z,16.65
2023-02-03T19:04:39.693Z,20.30
2023-02-03T19:07:06.084Z,15.20
2023-02-03T19:09:34.009Z,19.08
2023-02-03T19:12:00.502Z,18.52
2023-02-03T19:14:28.312Z,16.52
2023-02-03T19:16:54.830Z,18.23
2023-02-03T19:19:21.220Z,22.50
2023-02-03T19:21:48.690Z,17.23
2023-02-03T19:24:15.731Z,17.77
2023-02-03T19:26:42.427Z,16.83
2023-02-03T19:29:08.869Z,14.65
2023-02-03T19:31:38.347Z,19.80
2023-02-03T19:34:07.064Z,17.50
2023-02-03T19:36:33.430Z,17.77
2023-02-03T19:38:59.757Z,14.48
2023-02-03T19:41:27.143Z,15.30
2023-02-03T19:43:53.554Z,16.67
2023-02-03T19:46:23.474Z,17.95
2023-02-03T19:48:49.902Z,16.67
2023-02-03T19:51:17.258Z,15.70
2023-02-03T19:53:43.741Z,19.67
2023-02-03T19:56:10.136Z,22.75
2023-02-03T19:58:36.551Z,15.65
2023-02-03T20:01:02.894Z,17.90
2023-02-03T20:03:29.330Z,17.52
2023-02-03T20:05:55.782Z,24.00
2023-02-03T20:08:22.140Z,22.13
2023-02-03T20:10:48.471Z,15.20
2023-02-03T20:13:15.218Z,21.55
2023-02-03T20:15:41.966Z,20.48
2023-02-03T20:18:08.451Z,21.80
2023-02-03T20:20:35.434Z,20.67
2023-02-03T20:23:01.903Z,16.45
2023-02-03T20:25:28.345Z,17.80
2023-02-03T20:27:56.981Z,22.48
2023-02-03T20:30:23.556Z,15.82
2023-02-03T20:32:50.069Z,22.50
2023-02-03T20:35:16.467Z,23.73
2023-02-03T20:37:43.494Z,20.83
2023-02-03T20:40:16.093Z,27.00
2023-02-03T20:42:42.506Z,20.98
2023-02-03T20:45:10.943Z,21.15
2023-02-03T20:47:37.245Z,26.33
2023-02-03T20:50:06.137Z,24.83
2023-02-03T20:52:32.522Z,18.30
2023-02-03T20:54:58.835Z,22.25
2023-02-03T20:57:25.336Z,19.98
2023-02-03T20:59:51.744Z,24.60
2023-02-03T21:02:23.189Z,19.75
2023-02-03T21:04:59.078Z,17.88
2023-02-03T21:09:54.713Z,21.20
2023-02-03T21:12:21.219Z,20.63
2023-02-03T21:14:49.038Z,21.40
2023-02-03T21:17:22.641Z,26.60
2023-02-03T21:19:49.384Z,20.90
2023-02-03T21:22:21.802Z,26.70
2023-02-03T21:24:52.528Z,26.95
2023-02-03T21:27:26.678Z,15.27
2023-02-03T21:29:56.553Z,26.73
2023-02-03T21:32:24.130Z,19.80
2023-02-03T21:34:50.604Z,22.48
2023-02-03T21:37:22.772Z,22.38
2023-02-03T21:39:49.537Z,20.73
2023-02-03T21:42:41.414Z,20.52
2023-02-03T21:45:28.577Z,20.33
2023-02-03T21:47:56.191Z,17.50
2023-02-03T21:50:31.838Z,16.45
2023-02-03T21:53:18.827Z,18.92
2023-02-03T21:55:45.203Z,16.77
2023-02-03T21:58:23.710Z,19.73
2023-02-03T22:00:51.890Z,24.88
2023-02-03T22:03:27.162Z,22.45
2023-02-03T22:06:08.601Z,24.30
2023-02-03T22:08:45.624Z,23.65
2023-02-03T22:11:12.387Z,19.23
2023-02-03T22:13:38.671Z,24.90
2023-02-03T22:16:05.230Z,22.25
2023-02-03T22:18:31.619Z,26.00
2023-02-03T22:20:57.990Z,20.30
2023-02-03T22:23:24.335Z,20.83
2023-02-03T22:25:50.692Z,21.45
2023-02-03T22:28:17.465Z,26.42
2023-02-03T22:30:44.046Z,19.92
2023-02-03T22:33:10.610Z,21.17
2023-02-03T22:35:37.041Z,24.33
2023-02-03T22:38:03.525Z,19.60
2023-02-03T22:40:30.291Z,20.35
2023-02-03T22:42:56.980Z,20.90
2023-02-03T22:45:23.426Z,26.20
2023-02-03T22:47:49.774Z,20.65
2023-02-03T22:50:17.497Z,20.23
2023-02-03T22:52:46.767Z,22.20
2023-02-03T22:55:13.105Z,22.75
2023-02-03T22:57:40.713Z,12.90
2023-02-03T23:00:11.847Z,19.02
2023-02-03T23:02:39.332Z,19.90
2023-02-03T23:05:07.023Z,19.00
2023-02-03T23:07:33.528Z,24.45
2023-02-03T23:09:59.939Z,22.13
2023-02-03T23:12:26.517Z,24.58
2023-02-03T23:14:52.967Z,17.98
2023-02-03T23:17:19.310Z,18.80
2023-02-03T23:19:45.635Z,22.75
2023-02-03T23:22:11.941Z,17.33
2023-02-03T23:24:38.254Z,21.02
2023-02-03T23:27:04.638Z,25.90
2023-02-03T23:29:33.002Z,19.15
2023-02-03T23:31:59.421Z,17.98
2023-02-03T23:34:44.517Z,18.25
2023-02-03T23:37:10.895Z,26.30
2023-02-03T23:39:37.279Z,16.33
2023-02-03T23:42:03.705Z,27.08
2023-02-03T23:44:30.042Z,15.15
2023-02-03T23:46:56.404Z,21.33
2023-02-03T23:49:22.826Z,25.75
2023-02-03T23:51:49.249Z,19.70
2023-02-03T23:54:15.646Z,20.92
2023-02-03T23:56:41.945Z,21.30
2023-02-03T23:59:08.352Z,17.80
